sensor_id;sensor_type;location;lat;lon;timestamp;P1;durP1;ratioP1;P2;durP2;ratioP2
45077;SDS011;60508;42.622;25.416;2023-05-07T00:00:22;6.25;;;3.55;;
45077;SDS011;60508;42.622;25.416;2023-05-07T00:02:48;7.03;;;4.07;;
45077;SDS011;60508;42.622;25.416;2023-05-07T00:05:14;5.68;;;3.22;;
45077;SDS011;60508;42.622;25.416;2023-05-07T00:07:41;5.40;;;3.65;;
45077;SDS011;60508;42.622;25.416;2023-05-07T00:10:07;7.75;;;3.72;;
45077;SDS011;60508;42.622;25.416;2023-05-07T00:12:33;7.15;;;3.45;;
45077;SDS011;60508;42.622;25.416;2023-05-07T00:15:01;5.93;;;3.45;;
45077;SDS011;60508;42.622;25.416;2023-05-07T00:17:29;7.97;;;3.10;;
45077;SDS011;60508;42.622;25.416;2023-05-07T00:19:55;8.40;;;3.10;;
45077;SDS011;60508;42.622;25.416;2023-05-07T00:22:21;4.63;;;3.35;;
45077;SDS011;60508;42.622;25.416;2023-05-07T00:24:48;10.27;;;3.22;;
45077;SDS011;60508;42.622;25.416;2023-05-07T00:27:13;7.13;;;3.90;;
45077;SDS011;60508;42.622;25.416;2023-05-07T00:29:40;7.03;;;3.35;;
45077;SDS011;60508;42.622;25.416;2023-05-07T00:32:06;9.40;;;4.78;;
45077;SDS011;60508;42.622;25.416;2023-05-07T00:34:33;10.15;;;4.15;;
45077;SDS011;60508;42.622;25.416;2023-05-07T00:37:00;9.23;;;4.45;;
45077;SDS011;60508;42.622;25.416;2023-05-07T00:39:27;9.98;;;3.92;;
45077;SDS011;60508;42.622;25.416;2023-05-07T00:41:53;12.75;;;3.90;;
45077;SDS011;60508;42.622;25.416;2023-05-07T00:44:19;5.28;;;3.22;;
45077;SDS011;60508;42.622;25.416;2023-05-07T00:46:45;5.68;;;4.28;;
45077;SDS011;60508;42.622;25.416;2023-05-07T00:49:14;8.43;;;3.05;;
45077;SDS011;60508;42.622;25.416;2023-05-07T00:51:40;6.22;;;3.10;;
45077;SDS011;60508;42.622;25.416;2023-05-07T00:54:06;9.43;;;3.72;;
45077;SDS011;60508;42.622;25.416;2023-05-07T00:56:34;8.40;;;3.88;;
45077;SDS011;60508;42.622;25.416;2023-05-07T00:59:01;6.47;;;3.80;;
45077;SDS011;60508;42.622;25.416;2023-05-07T01:01:28;8.50;;;3.05;;
45077;SDS011;60508;42.622;25.416;2023-05-07T01:03:54;7.60;;;3.47;;
45077;SDS011;60508;42.622;25.416;2023-05-07T01:06:22;4.15;;;3.53;;
45077;SDS011;60508;42.622;25.416;2023-05-07T01:08:51;13.45;;;3.60;;
45077;SDS011;60508;42.622;25.416;2023-05-07T01:11:18;10.75;;;4.30;;
45077;SDS011;60508;42.622;25.416;2023-05-07T01:13:47;10.50;;;3.38;;
45077;SDS011;60508;42.622;25.416;2023-05-07T01:16:14;9.48;;;3.97;;
45077;SDS011;60508;42.622;25.416;2023-05-07T01:18:41;2.83;;;2.58;;
45077;SDS011;60508;42.622;25.416;2023-05-07T01:21:07;6.60;;;3.15;;
45077;SDS011;60508;42.622;25.416;2023-05-07T01:23:37;8.93;;;3.58;;
45077;SDS011;60508;42.622;25.416;2023-05-07T01:26:05;13.23;;;3.75;;
45077;SDS011;60508;42.622;25.416;2023-05-07T01:28:33;6.18;;;3.20;;
45077;SDS011;60508;42.622;25.416;2023-05-07T01:31:01;3.75;;;2.97;;
45077;SDS011;60508;42.622;25.416;2023-05-07T01:33:31;4.00;;;3.03;;
45077;SDS011;60508;42.622;25.416;2023-05-07T01:35:59;3.60;;;3.28;;
45077;SDS011;60508;42.622;25.416;2023-05-07T01:38:28;9.30;;;3.53;;
45077;SDS011;60508;42.622;25.416;2023-05-07T01:40:54;4.78;;;2.70;;
45077;SDS011;60508;42.622;25.416;2023-05-07T01:43:21;7.63;;;3.38;;
45077;SDS011;60508;42.622;25.416;2023-05-07T01:45:47;9.63;;;3.08;;
45077;SDS011;60508;42.622;25.416;2023-05-07T01:48:15;4.60;;;3.30;;
45077;SDS011;60508;42.622;25.416;2023-05-07T01:50:41;4.38;;;2.45;;
45077;SDS011;60508;42.622;25.416;2023-05-07T01:53:08;6.57;;;2.70;;
45077;SDS011;60508;42.622;25.416;2023-05-07T01:55:34;3.92;;;2.97;;
45077;SDS011;60508;42.622;25.416;2023-05-07T01:58:03;6.20;;;3.10;;
45077;SDS011;60508;42.622;25.416;2023-05-07T02:00:30;6.22;;;3.67;;
45077;SDS011;60508;42.622;25.416;2023-05-07T02:02:56;4.32;;;3.30;;
45077;SDS011;60508;42.622;25.416;2023-05-07T02:05:32;4.50;;;3.47;;
45077;SDS011;60508;42.622;25.416;2023-05-07T02:08:03;7.00;;;4.13;;
45077;SDS011;60508;42.622;25.416;2023-05-07T02:10:30;8.48;;;4.55;;
45077;SDS011;60508;42.622;25.416;2023-05-07T02:12:56;4.10;;;3.47;;
45077;SDS011;60508;42.622;25.416;2023-05-07T02:15:22;10.75;;;3.97;;
45077;SDS011;60508;42.622;25.416;2023-05-07T02:18:03;4.13;;;3.72;;
45077;SDS011;60508;42.622;25.416;2023-05-07T02:20:34;12.05;;;4.68;;
45077;SDS011;60508;42.622;25.416;2023-05-07T02:23:00;7.00;;;3.72;;
45077;SDS011;60508;42.622;25.416;2023-05-07T02:25:29;4.25;;;3.80;;
45077;SDS011;60508;42.622;25.416;2023-05-07T02:27:55;10.88;;;4.28;;
45077;SDS011;60508;42.622;25.416;2023-05-07T02:30:27;7.63;;;4.07;;
45077;SDS011;60508;42.622;25.416;2023-05-07T02:35:23;10.57;;;3.60;;
45077;SDS011;60508;42.622;25.416;2023-05-07T02:37:50;8.83;;;3.23;;
45077;SDS011;60508;42.622;25.416;2023-05-07T02:40:17;7.45;;;4.07;;
45077;SDS011;60508;42.622;25.416;2023-05-07T02:42:43;9.85;;;3.83;;
45077;SDS011;60508;42.622;25.416;2023-05-07T02:45:09;10.18;;;4.43;;
45077;SDS011;60508;42.622;25.416;2023-05-07T02:47:35;10.07;;;3.33;;
45077;SDS011;60508;42.622;25.416;2023-05-07T02:50:02;6.28;;;4.50;;
45077;SDS011;60508;42.622;25.416;2023-05-07T02:52:29;14.48;;;4.70;;
45077;SDS011;60508;42.622;25.416;2023-05-07T02:54:55;4.47;;;3.47;;
45077;SDS011;60508;42.622;25.416;2023-05-07T02:57:22;11.52;;;4.40;;
45077;SDS011;60508;42.622;25.416;2023-05-07T02:59:48;5.50;;;4.18;;
45077;SDS011;60508;42.622;25.416;2023-05-07T03:02:15;10.20;;;4.38;;
45077;SDS011;60508;42.622;25.416;2023-05-07T03:04:40;9.10;;;4.60;;
45077;SDS011;60508;42.622;25.416;2023-05-07T03:07:07;7.07;;;4.93;;
45077;SDS011;60508;42.622;25.416;2023-05-07T03:09:33;11.30;;;4.93;;
45077;SDS011;60508;42.622;25.416;2023-05-07T03:12:00;8.07;;;4.43;;
45077;SDS011;60508;42.622;25.416;2023-05-07T03:14:27;10.82;;;6.20;;
45077;SDS011;60508;42.622;25.416;2023-05-07T03:16:53;11.63;;;6.80;;
45077;SDS011;60508;42.622;25.416;2023-05-07T03:19:19;11.10;;;7.18;;
45077;SDS011;60508;42.622;25.416;2023-05-07T03:21:44;8.25;;;5.90;;
45077;SDS011;60508;42.622;25.416;2023-05-07T03:24:10;17.17;;;7.05;;
45077;SDS011;60508;42.622;25.416;2023-05-07T03:26:36;13.35;;;6.47;;
45077;SDS011;60508;42.622;25.416;2023-05-07T03:29:03;11.52;;;7.00;;
45077;SDS011;60508;42.622;25.416;2023-05-07T03:31:29;9.68;;;7.65;;
45077;SDS011;60508;42.622;25.416;2023-05-07T03:33:56;15.10;;;8.10;;
45077;SDS011;60508;42.622;25.416;2023-05-07T03:36:23;15.93;;;10.57;;
45077;SDS011;60508;42.622;25.416;2023-05-07T03:38:52;19.60;;;8.50;;
45077;SDS011;60508;42.622;25.416;2023-05-07T03:41:21;10.52;;;8.65;;
45077;SDS011;60508;42.622;25.416;2023-05-07T03:43:48;11.70;;;7.60;;
45077;SDS011;60508;42.622;25.416;2023-05-07T03:46:14;10.32;;;8.02;;
45077;SDS011;60508;42.622;25.416;2023-05-07T03:48:40;14.70;;;8.43;;
45077;SDS011;60508;42.622;25.416;2023-05-07T03:51:06;14.27;;;7.75;;
45077;SDS011;60508;42.622;25.416;2023-05-07T03:53:32;16.23;;;8.32;;
45077;SDS011;60508;42.622;25.416;2023-05-07T03:55:59;12.40;;;8.20;;
45077;SDS011;60508;42.622;25.416;2023-05-07T03:58:25;13.43;;;9.80;;
45077;SDS011;60508;42.622;25.416;2023-05-07T04:00:53;14.15;;;10.60;;
45077;SDS011;60508;42.622;25.416;2023-05-07T04:03:25;15.77;;;9.80;;
45077;SDS011;60508;42.622;25.416;2023-05-07T04:08:46;12.45;;;9.00;;
45077;SDS011;60508;42.622;25.416;2023-05-07T04:11:12;14.00;;;9.98;;
45077;SDS011;60508;42.622;25.416;2023-05-07T04:13:38;13.02;;;9.85;;
45077;SDS011;60508;42.622;25.416;2023-05-07T04:16:06;14.43;;;9.80;;
45077;SDS011;60508;42.622;25.416;2023-05-07T04:18:35;14.60;;;11.17;;
45077;SDS011;60508;42.622;25.416;2023-05-07T04:21:01;21.67;;;10.98;;
45077;SDS011;60508;42.622;25.416;2023-05-07T04:23:27;15.52;;;9.30;;
45077;SDS011;60508;42.622;25.416;2023-05-07T04:25:53;17.35;;;9.68;;
45077;SDS011;60508;42.622;25.416;2023-05-07T04:28:29;11.07;;;8.38;;
45077;SDS011;60508;42.622;25.416;2023-05-07T04:30:57;15.45;;;8.73;;
45077;SDS011;60508;42.622;25.416;2023-05-07T04:33:23;11.55;;;8.20;;
45077;SDS011;60508;42.622;25.416;2023-05-07T04:35:50;9.38;;;8.15;;
45077;SDS011;60508;42.622;25.416;2023-05-07T04:38:16;16.02;;;8.00;;
45077;SDS011;60508;42.622;25.416;2023-05-07T04:40:45;12.43;;;7.20;;
45077;SDS011;60508;42.622;25.416;2023-05-07T04:43:16;11.77;;;8.32;;
45077;SDS011;60508;42.622;25.416;2023-05-07T04:45:49;11.30;;;6.88;;
45077;SDS011;60508;42.622;25.416;2023-05-07T04:48:16;12.30;;;6.25;;
45077;SDS011;60508;42.622;25.416;2023-05-07T04:50:48;20.30;;;7.85;;
45077;SDS011;60508;42.622;25.416;2023-05-07T04:53:16;12.20;;;7.60;;
45077;SDS011;60508;42.622;25.416;2023-05-07T04:55:43;12.32;;;8.52;;
45077;SDS011;60508;42.622;25.416;2023-05-07T04:58:11;13.75;;;8.23;;
45077;SDS011;60508;42.622;25.416;2023-05-07T05:00:38;11.98;;;7.50;;
45077;SDS011;60508;42.622;25.416;2023-05-07T05:03:06;8.25;;;6.55;;
45077;SDS011;60508;42.622;25.416;2023-05-07T05:05:33;18.30;;;8.07;;
45077;SDS011;60508;42.622;25.416;2023-05-07T05:08:01;14.25;;;8.05;;
45077;SDS011;60508;42.622;25.416;2023-05-07T05:10:27;9.73;;;7.90;;
45077;SDS011;60508;42.622;25.416;2023-05-07T05:12:54;8.75;;;6.15;;
45077;SDS011;60508;42.622;25.416;2023-05-07T05:15:22;16.55;;;7.13;;
45077;SDS011;60508;42.622;25.416;2023-05-07T05:17:48;11.88;;;6.78;;
45077;SDS011;60508;42.622;25.416;2023-05-07T05:20:15;10.25;;;7.28;;
45077;SDS011;60508;42.622;25.416;2023-05-07T05:22:41;8.50;;;6.28;;
45077;SDS011;60508;42.622;25.416;2023-05-07T05:25:08;11.13;;;6.85;;
45077;SDS011;60508;42.622;25.416;2023-05-07T05:27:34;12.90;;;7.18;;
45077;SDS011;60508;42.622;25.416;2023-05-07T05:30:01;13.95;;;5.90;;
45077;SDS011;60508;42.622;25.416;2023-05-07T05:32:29;8.03;;;5.97;;
45077;SDS011;60508;42.622;25.416;2023-05-07T05:34:57;9.95;;;5.38;;
45077;SDS011;60508;42.622;25.416;2023-05-07T05:37:24;10.75;;;5.72;;
45077;SDS011;60508;42.622;25.416;2023-05-07T05:39:51;8.98;;;5.10;;
45077;SDS011;60508;42.622;25.416;2023-05-07T05:42:18;9.40;;;5.32;;
45077;SDS011;60508;42.622;25.416;2023-05-07T05:44:45;8.70;;;5.43;;
45077;SDS011;60508;42.622;25.416;2023-05-07T05:47:11;11.98;;;5.82;;
45077;SDS011;60508;42.622;25.416;2023-05-07T05:49:37;11.27;;;5.40;;
45077;SDS011;60508;42.622;25.416;2023-05-07T05:52:04;5.53;;;4.90;;
45077;SDS011;60508;42.622;25.416;2023-05-07T05:54:31;7.88;;;5.82;;
45077;SDS011;60508;42.622;25.416;2023-05-07T05:56:57;15.30;;;6.68;;
45077;SDS011;60508;42.622;25.416;2023-05-07T05:59:24;9.55;;;5.22;;
45077;SDS011;60508;42.622;25.416;2023-05-07T06:01:51;14.82;;;6.13;;
45077;SDS011;60508;42.622;25.416;2023-05-07T06:04:17;7.07;;;5.75;;
45077;SDS011;60508;42.622;25.416;2023-05-07T06:06:43;7.38;;;5.28;;
45077;SDS011;60508;42.622;25.416;2023-05-07T06:09:09;8.48;;;5.28;;
45077;SDS011;60508;42.622;25.416;2023-05-07T06:11:40;5.93;;;4.72;;
45077;SDS011;60508;42.622;25.416;2023-05-07T06:14:07;10.57;;;4.80;;
45077;SDS011;60508;42.622;25.416;2023-05-07T06:16:34;6.25;;;5.07;;
45077;SDS011;60508;42.622;25.416;2023-05-07T06:19:02;14.35;;;6.40;;
45077;SDS011;60508;42.622;25.416;2023-05-07T06:21:28;6.35;;;4.53;;
45077;SDS011;60508;42.622;25.416;2023-05-07T06:23:54;10.77;;;5.03;;
45077;SDS011;60508;42.622;25.416;2023-05-07T06:26:21;11.90;;;5.35;;
45077;SDS011;60508;42.622;25.416;2023-05-07T06:28:47;6.13;;;5.32;;
45077;SDS011;60508;42.622;25.416;2023-05-07T06:31:15;8.18;;;4.65;;
45077;SDS011;60508;42.622;25.416;2023-05-07T06:33:45;15.65;;;5.47;;
45077;SDS011;60508;42.622;25.416;2023-05-07T06:36:12;9.20;;;4.75;;
45077;SDS011;60508;42.622;25.416;2023-05-07T06:38:39;18.90;;;5.50;;
45077;SDS011;60508;42.622;25.416;2023-05-07T06:41:05;5.55;;;4.70;;
45077;SDS011;60508;42.622;25.416;2023-05-07T06:43:32;6.78;;;5.03;;
45077;SDS011;60508;42.622;25.416;2023-05-07T06:46:30;9.70;;;4.47;;
45077;SDS011;60508;42.622;25.416;2023-05-07T06:48:56;10.30;;;4.45;;
45077;SDS011;60508;42.622;25.416;2023-05-07T06:51:22;10.95;;;4.30;;
45077;SDS011;60508;42.622;25.416;2023-05-07T06:53:49;12.45;;;4.20;;
45077;SDS011;60508;42.622;25.416;2023-05-07T06:56:15;12.38;;;4.53;;
45077;SDS011;60508;42.622;25.416;2023-05-07T06:58:41;6.95;;;3.88;;
45077;SDS011;60508;42.622;25.416;2023-05-07T07:01:09;5.85;;;3.65;;
45077;SDS011;60508;42.622;25.416;2023-05-07T07:03:36;6.05;;;4.30;;
45077;SDS011;60508;42.622;25.416;2023-05-07T07:06:03;3.47;;;3.15;;
45077;SDS011;60508;42.622;25.416;2023-05-07T07:08:30;7.72;;;2.80;;
45077;SDS011;60508;42.622;25.416;2023-05-07T07:10:56;7.50;;;2.97;;
45077;SDS011;60508;42.622;25.416;2023-05-07T07:13:22;5.30;;;2.40;;
45077;SDS011;60508;42.622;25.416;2023-05-07T07:15:48;3.65;;;2.33;;
45077;SDS011;60508;42.622;25.416;2023-05-07T07:18:14;5.47;;;4.35;;
45077;SDS011;60508;42.622;25.416;2023-05-07T07:20:41;2.65;;;2.20;;
45077;SDS011;60508;42.622;25.416;2023-05-07T07:23:07;8.45;;;2.53;;
45077;SDS011;60508;42.622;25.416;2023-05-07T07:25:34;3.78;;;2.35;;
45077;SDS011;60508;42.622;25.416;2023-05-07T07:28:00;5.38;;;2.15;;
45077;SDS011;60508;42.622;25.416;2023-05-07T07:30:27;5.05;;;2.28;;
45077;SDS011;60508;42.622;25.416;2023-05-07T07:32:54;3.78;;;1.90;;
45077;SDS011;60508;42.622;25.416;2023-05-07T07:35:22;14.30;;;3.28;;
45077;SDS011;60508;42.622;25.416;2023-05-07T07:37:49;7.55;;;2.17;;
45077;SDS011;60508;42.622;25.416;2023-05-07T07:40:16;3.35;;;1.90;;
45077;SDS011;60508;42.622;25.416;2023-05-07T07:42:43;3.78;;;1.77;;
45077;SDS011;60508;42.622;25.416;2023-05-07T07:45:10;6.13;;;2.90;;
45077;SDS011;60508;42.622;25.416;2023-05-07T07:47:41;6.68;;;2.53;;
45077;SDS011;60508;42.622;25.416;2023-05-07T07:50:08;6.82;;;1.75;;
45077;SDS011;60508;42.622;25.416;2023-05-07T07:52:34;6.97;;;2.17;;
45077;SDS011;60508;42.622;25.416;2023-05-07T07:55:01;3.90;;;2.08;;
45077;SDS011;60508;42.622;25.416;2023-05-07T07:57:29;6.00;;;1.98;;
45077;SDS011;60508;42.622;25.416;2023-05-07T07:59:55;2.80;;;1.67;;
45077;SDS011;60508;42.622;25.416;2023-05-07T08:02:21;3.70;;;2.17;;
45077;SDS011;60508;42.622;25.416;2023-05-07T08:04:49;6.85;;;2.53;;
45077;SDS011;60508;42.622;25.416;2023-05-07T08:07:15;6.20;;;2.05;;
45077;SDS011;60508;42.622;25.416;2023-05-07T08:09:45;4.47;;;2.00;;
45077;SDS011;60508;42.622;25.416;2023-05-07T08:12:13;4.55;;;2.80;;
45077;SDS011;60508;42.622;25.416;2023-05-07T08:14:39;8.13;;;1.92;;
45077;SDS011;60508;42.622;25.416;2023-05-07T08:17:07;1.90;;;1.77;;
45077;SDS011;60508;42.622;25.416;2023-05-07T08:19:36;11.18;;;2.60;;
45077;SDS011;60508;42.622;25.416;2023-05-07T08:22:04;8.70;;;2.00;;
45077;SDS011;60508;42.622;25.416;2023-05-07T08:24:33;4.22;;;1.90;;
45077;SDS011;60508;42.622;25.416;2023-05-07T08:26:59;5.85;;;2.17;;
45077;SDS011;60508;42.622;25.416;2023-05-07T08:29:25;6.75;;;1.85;;
45077;SDS011;60508;42.622;25.416;2023-05-07T08:31:52;3.70;;;1.25;;
45077;SDS011;60508;42.622;25.416;2023-05-07T08:34:18;2.65;;;1.27;;
45077;SDS011;60508;42.622;25.416;2023-05-07T08:36:46;3.58;;;1.35;;
45077;SDS011;60508;42.622;25.416;2023-05-07T08:39:16;2.53;;;0.98;;
45077;SDS011;60508;42.622;25.416;2023-05-07T08:41:44;3.53;;;1.70;;
45077;SDS011;60508;42.622;25.416;2023-05-07T08:44:12;2.50;;;1.10;;
45077;SDS011;60508;42.622;25.416;2023-05-07T08:46:41;4.00;;;1.45;;
45077;SDS011;60508;42.622;25.416;2023-05-07T08:49:09;1.70;;;1.48;;
45077;SDS011;60508;42.622;25.416;2023-05-07T08:51:35;2.30;;;1.38;;
45077;SDS011;60508;42.622;25.416;2023-05-07T08:54:05;4.45;;;1.95;;
45077;SDS011;60508;42.622;25.416;2023-05-07T08:56:32;4.05;;;1.20;;
45077;SDS011;60508;42.622;25.416;2023-05-07T08:58:59;5.43;;;1.80;;
45077;SDS011;60508;42.622;25.416;2023-05-07T09:01:27;10.27;;;2.63;;
45077;SDS011;60508;42.622;25.416;2023-05-07T09:03:55;16.98;;;5.50;;
45077;SDS011;60508;42.622;25.416;2023-05-07T09:06:22;3.20;;;1.52;;
45077;SDS011;60508;42.622;25.416;2023-05-07T09:08:49;14.27;;;3.78;;
45077;SDS011;60508;42.622;25.416;2023-05-07T09:11:19;35.03;;;9.38;;
45077;SDS011;60508;42.622;25.416;2023-05-07T09:13:49;21.00;;;6.80;;
45077;SDS011;60508;42.622;25.416;2023-05-07T09:16:20;5.00;;;1.48;;
45077;SDS011;60508;42.622;25.416;2023-05-07T09:18:48;3.65;;;1.80;;
45077;SDS011;60508;42.622;25.416;2023-05-07T09:21:17;2.42;;;1.10;;
45077;SDS011;60508;42.622;25.416;2023-05-07T09:23:45;7.90;;;1.97;;
45077;SDS011;60508;42.622;25.416;2023-05-07T09:26:14;3.13;;;1.40;;
45077;SDS011;60508;42.622;25.416;2023-05-07T09:28:42;5.20;;;1.65;;
45077;SDS011;60508;42.622;25.416;2023-05-07T09:31:11;16.48;;;7.55;;
45077;SDS011;60508;42.622;25.416;2023-05-07T09:33:37;2.90;;;1.20;;
45077;SDS011;60508;42.622;25.416;2023-05-07T09:36:06;4.82;;;2.47;;
45077;SDS011;60508;42.622;25.416;2023-05-07T09:38:36;6.35;;;2.22;;
45077;SDS011;60508;42.622;25.416;2023-05-07T09:43:40;6.22;;;1.10;;
45077;SDS011;60508;42.622;25.416;2023-05-07T09:46:12;1.00;;;0.90;;
45077;SDS011;60508;42.622;25.416;2023-05-07T09:48:45;1.33;;;1.13;;
45077;SDS011;60508;42.622;25.416;2023-05-07T09:53:58;5.00;;;1.45;;
45077;SDS011;60508;42.622;25.416;2023-05-07T09:56:29;3.63;;;1.63;;
45077;SDS011;60508;42.622;25.416;2023-05-07T09:58:57;2.20;;;1.48;;
45077;SDS011;60508;42.622;25.416;2023-05-07T10:01:26;2.97;;;1.40;;
45077;SDS011;60508;42.622;25.416;2023-05-07T10:03:53;3.22;;;1.30;;
45077;SDS011;60508;42.622;25.416;2023-05-07T10:06:23;3.90;;;1.48;;
45077;SDS011;60508;42.622;25.416;2023-05-07T10:08:51;1.92;;;1.65;;
45077;SDS011;60508;42.622;25.416;2023-05-07T10:11:19;11.98;;;1.52;;
45077;SDS011;60508;42.622;25.416;2023-05-07T10:13:47;3.40;;;1.20;;
45077;SDS011;60508;42.622;25.416;2023-05-07T10:16:14;4.93;;;1.15;;
45077;SDS011;60508;42.622;25.416;2023-05-07T10:18:45;1.27;;;1.08;;
45077;SDS011;60508;42.622;25.416;2023-05-07T10:21:17;4.13;;;1.27;;
45077;SDS011;60508;42.622;25.416;2023-05-07T10:26:13;9.88;;;1.92;;
45077;SDS011;60508;42.622;25.416;2023-05-07T10:28:44;1.77;;;1.10;;
45077;SDS011;60508;42.622;25.416;2023-05-07T10:33:51;3.77;;;2.17;;
45077;SDS011;60508;42.622;25.416;2023-05-07T10:36:22;3.05;;;1.90;;
45077;SDS011;60508;42.622;25.416;2023-05-07T10:38:52;16.20;;;1.88;;
45077;SDS011;60508;42.622;25.416;2023-05-07T10:41:18;2.85;;;1.05;;
45077;SDS011;60508;42.622;25.416;2023-05-07T10:43:46;2.17;;;1.38;;
45077;SDS011;60508;42.622;25.416;2023-05-07T10:46:38;7.05;;;1.42;;
45077;SDS011;60508;42.622;25.416;2023-05-07T10:49:13;1.88;;;1.20;;
45077;SDS011;60508;42.622;25.416;2023-05-07T10:57:50;5.55;;;1.08;;
45077;SDS011;60508;42.622;25.416;2023-05-07T11:05:28;6.03;;;1.50;;
45077;SDS011;60508;42.622;25.416;2023-05-07T11:08:18;5.32;;;1.38;;
45077;SDS011;60508;42.622;25.416;2023-05-07T11:11:01;2.15;;;1.40;;
45077;SDS011;60508;42.622;25.416;2023-05-07T11:13:47;2.63;;;1.35;;
45077;SDS011;60508;42.622;25.416;2023-05-07T11:16:44;2.45;;;1.63;;
45077;SDS011;60508;42.622;25.416;2023-05-07T11:20:07;2.95;;;1.42;;
45077;SDS011;60508;42.622;25.416;2023-05-07T11:22:39;1.50;;;1.40;;
45077;SDS011;60508;42.622;25.416;2023-05-07T11:25:22;4.60;;;1.20;;
45077;SDS011;60508;42.622;25.416;2023-05-07T11:28:11;1.50;;;1.33;;
45077;SDS011;60508;42.622;25.416;2023-05-07T11:30:47;5.35;;;1.05;;
45077;SDS011;60508;42.622;25.416;2023-05-07T11:33:17;1.73;;;1.38;;
45077;SDS011;60508;42.622;25.416;2023-05-07T11:35:45;6.88;;;1.40;;
45077;SDS011;60508;42.622;25.416;2023-05-07T11:38:13;5.40;;;1.23;;
45077;SDS011;60508;42.622;25.416;2023-05-07T11:40:50;7.82;;;1.50;;
45077;SDS011;60508;42.622;25.416;2023-05-07T11:43:24;3.88;;;1.40;;
45077;SDS011;60508;42.622;25.416;2023-05-07T11:45:50;5.97;;;1.58;;
45077;SDS011;60508;42.622;25.416;2023-05-07T11:48:17;4.05;;;2.15;;
45077;SDS011;60508;42.622;25.416;2023-05-07T11:53:39;4.32;;;1.33;;
45077;SDS011;60508;42.622;25.416;2023-05-07T11:56:10;10.30;;;1.30;;
45077;SDS011;60508;42.622;25.416;2023-05-07T11:58:39;2.38;;;1.08;;
45077;SDS011;60508;42.622;25.416;2023-05-07T12:01:07;4.15;;;1.20;;
45077;SDS011;60508;42.622;25.416;2023-05-07T12:03:35;3.35;;;1.30;;
45077;SDS011;60508;42.622;25.416;2023-05-07T12:06:05;2.27;;;0.97;;
45077;SDS011;60508;42.622;25.416;2023-05-07T12:10:58;4.80;;;2.35;;
45077;SDS011;60508;42.622;25.416;2023-05-07T12:13:25;2.13;;;1.13;;
45077;SDS011;60508;42.622;25.416;2023-05-07T12:15:51;1.45;;;1.00;;
45077;SDS011;60508;42.622;25.416;2023-05-07T12:18:19;1.45;;;1.00;;
45077;SDS011;60508;42.622;25.416;2023-05-07T12:20:46;5.97;;;1.40;;
45077;SDS011;60508;42.622;25.416;2023-05-07T12:23:12;2.50;;;1.20;;
45077;SDS011;60508;42.622;25.416;2023-05-07T12:25:40;5.68;;;1.30;;
45077;SDS011;60508;42.622;25.416;2023-05-07T12:28:16;3.72;;;1.05;;
45077;SDS011;60508;42.622;25.416;2023-05-07T12:30:44;4.38;;;1.63;;
45077;SDS011;60508;42.622;25.416;2023-05-07T12:33:11;2.78;;;1.00;;
45077;SDS011;60508;42.622;25.416;2023-05-07T12:35:39;2.97;;;1.70;;
45077;SDS011;60508;42.622;25.416;2023-05-07T12:38:13;2.83;;;0.93;;
45077;SDS011;60508;42.622;25.416;2023-05-07T12:40:42;5.00;;;1.40;;
45077;SDS011;60508;42.622;25.416;2023-05-07T12:43:19;2.92;;;1.27;;
45077;SDS011;60508;42.622;25.416;2023-05-07T12:45:48;6.78;;;1.30;;
45077;SDS011;60508;42.622;25.416;2023-05-07T12:48:16;1.83;;;1.10;;
45077;SDS011;60508;42.622;25.416;2023-05-07T12:50:42;2.10;;;1.08;;
45077;SDS011;60508;42.622;25.416;2023-05-07T12:53:10;1.75;;;1.02;;
45077;SDS011;60508;42.622;25.416;2023-05-07T12:55:44;6.95;;;1.02;;
45077;SDS011;60508;42.622;25.416;2023-05-07T12:58:30;4.63;;;1.13;;
45077;SDS011;60508;42.622;25.416;2023-05-07T13:01:00;4.07;;;1.23;;
45077;SDS011;60508;42.622;25.416;2023-05-07T13:03:30;2.85;;;1.00;;
45077;SDS011;60508;42.622;25.416;2023-05-07T13:05:58;2.25;;;0.80;;
45077;SDS011;60508;42.622;25.416;2023-05-07T13:08:30;7.97;;;2.08;;
45077;SDS011;60508;42.622;25.416;2023-05-07T13:10:58;2.80;;;1.23;;
45077;SDS011;60508;42.622;25.416;2023-05-07T13:13:27;4.72;;;1.15;;
45077;SDS011;60508;42.622;25.416;2023-05-07T13:15:53;5.15;;;1.50;;
45077;SDS011;60508;42.622;25.416;2023-05-07T13:18:19;4.00;;;1.17;;
45077;SDS011;60508;42.622;25.416;2023-05-07T13:20:46;7.13;;;1.30;;
45077;SDS011;60508;42.622;25.416;2023-05-07T13:23:12;1.95;;;1.15;;
45077;SDS011;60508;42.622;25.416;2023-05-07T13:25:38;3.63;;;1.30;;
45077;SDS011;60508;42.622;25.416;2023-05-07T13:28:04;9.95;;;1.60;;
45077;SDS011;60508;42.622;25.416;2023-05-07T13:30:31;2.83;;;1.20;;
45077;SDS011;60508;42.622;25.416;2023-05-07T13:32:57;1.23;;;0.93;;
45077;SDS011;60508;42.622;25.416;2023-05-07T13:35:23;3.65;;;1.08;;
45077;SDS011;60508;42.622;25.416;2023-05-07T13:37:50;2.55;;;1.30;;
45077;SDS011;60508;42.622;25.416;2023-05-07T13:40:17;5.07;;;1.90;;
45077;SDS011;60508;42.622;25.416;2023-05-07T13:42:44;2.35;;;1.65;;
45077;SDS011;60508;42.622;25.416;2023-05-07T13:45:10;5.53;;;1.48;;
45077;SDS011;60508;42.622;25.416;2023-05-07T13:47:40;3.70;;;0.98;;
45077;SDS011;60508;42.622;25.416;2023-05-07T13:50:09;4.25;;;1.00;;
45077;SDS011;60508;42.622;25.416;2023-05-07T13:52:37;6.40;;;0.80;;
45077;SDS011;60508;42.622;25.416;2023-05-07T13:55:03;3.70;;;1.27;;
45077;SDS011;60508;42.622;25.416;2023-05-07T13:57:30;4.05;;;1.30;;
45077;SDS011;60508;42.622;25.416;2023-05-07T13:59:56;4.20;;;1.25;;
45077;SDS011;60508;42.622;25.416;2023-05-07T14:02:22;4.90;;;1.05;;
45077;SDS011;60508;42.622;25.416;2023-05-07T14:04:48;1.65;;;0.90;;
45077;SDS011;60508;42.622;25.416;2023-05-07T14:07:14;2.78;;;1.00;;
45077;SDS011;60508;42.622;25.416;2023-05-07T14:09:40;1.80;;;1.10;;
45077;SDS011;60508;42.622;25.416;2023-05-07T14:12:06;5.25;;;1.20;;
45077;SDS011;60508;42.622;25.416;2023-05-07T14:14:32;5.78;;;1.40;;
45077;SDS011;60508;42.622;25.416;2023-05-07T14:16:59;2.53;;;0.90;;
45077;SDS011;60508;42.622;25.416;2023-05-07T14:19:25;2.95;;;1.33;;
45077;SDS011;60508;42.622;25.416;2023-05-07T14:21:51;5.35;;;1.13;;
45077;SDS011;60508;42.622;25.416;2023-05-07T14:24:17;3.72;;;2.08;;
45077;SDS011;60508;42.622;25.416;2023-05-07T14:26:43;4.03;;;1.70;;
45077;SDS011;60508;42.622;25.416;2023-05-07T14:29:09;3.03;;;1.50;;
45077;SDS011;60508;42.622;25.416;2023-05-07T14:31:34;6.18;;;1.10;;
45077;SDS011;60508;42.622;25.416;2023-05-07T14:34:00;5.63;;;1.90;;
45077;SDS011;60508;42.622;25.416;2023-05-07T14:36:27;2.30;;;1.50;;
45077;SDS011;60508;42.622;25.416;2023-05-07T14:38:55;8.35;;;2.15;;
45077;SDS011;60508;42.622;25.416;2023-05-07T14:41:22;2.58;;;1.30;;
45077;SDS011;60508;42.622;25.416;2023-05-07T14:43:48;1.77;;;1.13;;
45077;SDS011;60508;42.622;25.416;2023-05-07T14:46:17;9.90;;;1.60;;
45077;SDS011;60508;42.622;25.416;2023-05-07T14:48:46;4.25;;;1.20;;
45077;SDS011;60508;42.622;25.416;2023-05-07T14:51:12;2.40;;;1.30;;
45077;SDS011;60508;42.622;25.416;2023-05-07T14:53:38;4.57;;;1.30;;
45077;SDS011;60508;42.622;25.416;2023-05-07T14:56:06;5.70;;;1.13;;
45077;SDS011;60508;42.622;25.416;2023-05-07T14:58:32;1.80;;;1.33;;
45077;SDS011;60508;42.622;25.416;2023-05-07T15:00:58;1.83;;;1.27;;
45077;SDS011;60508;42.622;25.416;2023-05-07T15:03:24;4.13;;;1.38;;
45077;SDS011;60508;42.622;25.416;2023-05-07T15:05:51;4.90;;;1.52;;
45077;SDS011;60508;42.622;25.416;2023-05-07T15:08:17;3.40;;;1.17;;